Huddy, KY (41535)

9:19 PM EDT on July 28, 2014 (GMT -0400)
West Williamson, WV (KWVWILLI2) Elev 682 ft | 37.68 °N, 82.29 °W | Change Station

Current weather conditions updated 9 seconds ago

Clear
Clear
66.2 °F
Feels Like 66.2 °F
N
0.0
Wind Variable Wind from ESE
Gusts 0.0 mph

Tomorrow is forecast to be Cooler than today.

Today
High -- | Low -- °F
--% Chance of Precip.
Yesterday
High -- | Low -- °F
Precip. -- in
6:29 AM 8:40 PM
Waxing Crescent, 4% visible
Pressure 29.99 in
Visibility 10.0 miles
Clouds Clear
Dew Point 64 °F
Humidity 92%
Rainfall 0.24 in
Snow Depth Not available.
UV 0 out of 12
Pollen 3.90 out of 12
Air Quality Not available.
Flu Activity Not available.
METAR KSJS 290055Z AUTO 00000KT 10SM CLR 19/16 A2999 RMK AO2 T01900157

More Conditions Fewer Conditions

Pressure 29.99 in
Visibility 10.0 miles
Clouds Clear
Dew Point 64 °F
Humidity 92%
Rainfall 0.24 in
Snow Depth Not available.
UV 0 out of 12
Pollen 3.90 out of 12
Air Quality Not available.
Flu Activity Not available.
METAR KSJS 290055Z AUTO 00000KT 10SM CLR 19/16 A2999 RMK AO2 T01900157

More Conditions Fewer Conditions

10-Day Weather Forecast

Almanac

Astronomy

Jul. 28, 2014 Rise Set
Actual Time 6:29 AM EDT 8:40 PM EDT
Civil Twilight 6:00 AM EDT 9:10 PM EDT
Nautical Twilight 5:24 AM EDT 9:45 PM EDT
Astronomical Twilight 4:45 AM EDT 10:24 PM EDT
Moon 8:07 AM EDT (7/28) 9:25 PM EDT (7/28)
Length of Visible Light 15h 09m
Length of Day
14h 11m
Tomorrow will be 1m 43s shorter.
Waxing Crescent, 4% of the Moon is Illuminated
Today
Waxing Crescent
Aug 3
First Quarter
Aug 10
Full
Aug 17
Last Quarter
Aug 25
New

Today's Extremes

State Highs State Lows

Community

WunderPhotos

Upload Photos

1,738,579 photos uploaded!

WunderBlogs® & News

Nearby

Snow Depth

Station Depth Elevation
No new snow has been reported.

Earthquake Activity

City Distance Mag. Time & Date
No recent earthquake activity has been reported nearby.
Minimum magnitude displayed is 2.5.

Coastal Water Temperatures

Place Temperature
No Stations Reporting

Nearby Weather Stations

Station Location Temp. Heat Index Dew Point Humidity Wind Precip. Elev Updated Type
West Williamson, WV, Williamson, WV 66.2 °F - 64 °F 92% ESE  at  0.0 mph 0.00 in / hr 682 ft 9:19 PM EDT Rapid Fire
Ratliff Creek, Pikeville, KY 65.7 °F - 63 °F 92% North  at  0.0 mph 0.00 in / hr 699 ft 9:15 PM EDT Normal
East Kentucky Broadcasting, Pikeville, KY 67.6 °F - 60 °F 76% SSW  at  0.0 mph 0.00 in / hr 686 ft 9:19 PM EDT Rapid Fire
Quail Ridge, Pikeville, KY 66.6 °F - 63 °F 89% West  at  0.0 mph 0.00 in / hr 778 ft 9:19 PM EDT Rapid Fire
Pikeville Medical Center, Pikeville, KY 70.4 °F 74 °F 59 °F 68% North  at  0.0 mph 0.00 in / hr 683 ft 9:15 PM EDT Normal
Sookeys Creek, Kentucky, KY 64.9 °F - 64 °F 95% North  at  0.0 mph 0.00 in / hr 850 ft 9:16 PM EDT Normal
Burl's Weather, 314 Shawnee Circle,Switz, Rossmore, WV 68.0 °F - 65 °F 91% SSE  at  0.0 mph 0.00 in / hr 722 ft 9:19 PM EDT Normal

Show More Stations Show Fewer Stations